sensor_id;sensor_type;location;lat;lon;timestamp;P1;durP1;ratioP1;P2;durP2;ratioP2
17631;SDS011;8934;51.194;17.150;2022-10-16T02:12:33;8.70;;;7.90;;
17631;SDS011;8934;51.194;17.150;2022-10-16T02:15:25;7.65;;;6.97;;
17631;SDS011;8934;51.194;17.150;2022-10-16T02:18:14;8.98;;;8.23;;
17631;SDS011;8934;51.194;17.150;2022-10-16T02:21:04;7.63;;;7.03;;
17631;SDS011;8934;51.194;17.150;2022-10-16T02:24:01;9.55;;;8.65;;
17631;SDS011;8934;51.194;17.150;2022-10-16T02:26:57;7.40;;;6.80;;
17631;SDS011;8934;51.194;17.150;2022-10-16T02:29:52;8.70;;;7.88;;
17631;SDS011;8934;51.194;17.150;2022-10-16T02:32:45;7.47;;;6.88;;
17631;SDS011;8934;51.194;17.150;2022-10-16T02:35:37;7.63;;;7.03;;
17631;SDS011;8934;51.194;17.150;2022-10-16T02:38:25;7.15;;;6.60;;
17631;SDS011;8934;51.194;17.150;2022-10-16T02:41:14;8.30;;;7.13;;
17631;SDS011;8934;51.194;17.150;2022-10-16T02:44:02;7.13;;;6.63;;
17631;SDS011;8934;51.194;17.150;2022-10-16T02:46:50;8.57;;;7.63;;
17631;SDS011;8934;51.194;17.150;2022-10-16T02:49:38;8.80;;;8.00;;
17631;SDS011;8934;51.194;17.150;2022-10-16T02:52:27;8.55;;;7.85;;
17631;SDS011;8934;51.194;17.150;2022-10-16T02:55:15;9.63;;;8.63;;
17631;SDS011;8934;51.194;17.150;2022-10-16T02:58:03;11.70;;;10.50;;
17631;SDS011;8934;51.194;17.150;2022-10-16T03:00:51;11.85;;;10.75;;
17631;SDS011;8934;51.194;17.150;2022-10-16T03:03:39;9.35;;;8.45;;
17631;SDS011;8934;51.194;17.150;2022-10-16T03:06:26;10.98;;;9.88;;
17631;SDS011;8934;51.194;17.150;2022-10-16T03:09:16;9.73;;;8.82;;
17631;SDS011;8934;51.194;17.150;2022-10-16T03:12:04;10.07;;;9.07;;
17631;SDS011;8934;51.194;17.150;2022-10-16T03:14:52;10.45;;;9.02;;
17631;SDS011;8934;51.194;17.150;2022-10-16T03:17:40;9.77;;;8.88;;
17631;SDS011;8934;51.194;17.150;2022-10-16T03:20:28;9.60;;;8.70;;
17631;SDS011;8934;51.194;17.150;2022-10-16T03:23:16;9.98;;;9.07;;
17631;SDS011;8934;51.194;17.150;2022-10-16T03:26:05;9.55;;;8.75;;
17631;SDS011;8934;51.194;17.150;2022-10-16T03:28:53;10.50;;;9.50;;
17631;SDS011;8934;51.194;17.150;2022-10-16T03:31:41;9.68;;;8.77;;
17631;SDS011;8934;51.194;17.150;2022-10-16T03:34:30;9.82;;;9.02;;
17631;SDS011;8934;51.194;17.150;2022-10-16T03:37:18;9.82;;;8.82;;
17631;SDS011;8934;51.194;17.150;2022-10-16T03:40:06;10.52;;;9.48;;
17631;SDS011;8934;51.194;17.150;2022-10-16T03:42:55;10.07;;;9.02;;
17631;SDS011;8934;51.194;17.150;2022-10-16T03:45:43;9.32;;;8.43;;
17631;SDS011;8934;51.194;17.150;2022-10-16T03:48:31;10.18;;;8.90;;
17631;SDS011;8934;51.194;17.150;2022-10-16T03:51:18;10.25;;;9.40;;
17631;SDS011;8934;51.194;17.150;2022-10-16T03:54:06;9.68;;;8.88;;
17631;SDS011;8934;51.194;17.150;2022-10-16T03:56:54;9.00;;;8.20;;
17631;SDS011;8934;51.194;17.150;2022-10-16T03:59:43;9.88;;;8.90;;
17631;SDS011;8934;51.194;17.150;2022-10-16T04:02:30;9.73;;;8.95;;
17631;SDS011;8934;51.194;17.150;2022-10-16T04:05:18;10.30;;;7.90;;
17631;SDS011;8934;51.194;17.150;2022-10-16T04:08:06;9.23;;;8.52;;
17631;SDS011;8934;51.194;17.150;2022-10-16T04:10:54;8.73;;;8.00;;
17631;SDS011;8934;51.194;17.150;2022-10-16T04:13:42;8.20;;;7.57;;
17631;SDS011;8934;51.194;17.150;2022-10-16T04:16:31;8.68;;;7.88;;
17631;SDS011;8934;51.194;17.150;2022-10-16T04:19:19;8.85;;;8.05;;
17631;SDS011;8934;51.194;17.150;2022-10-16T04:22:07;8.50;;;7.80;;
17631;SDS011;8934;51.194;17.150;2022-10-16T04:24:54;9.13;;;8.38;;
17631;SDS011;8934;51.194;17.150;2022-10-16T04:27:45;7.87;;;7.27;;
17631;SDS011;8934;51.194;17.150;2022-10-16T04:36:10;8.60;;;7.90;;
17631;SDS011;8934;51.194;17.150;2022-10-16T04:38:58;8.90;;;8.20;;
17631;SDS011;8934;51.194;17.150;2022-10-16T04:41:46;9.65;;;8.77;;
17631;SDS011;8934;51.194;17.150;2022-10-16T04:44:34;8.75;;;7.85;;
17631;SDS011;8934;51.194;17.150;2022-10-16T04:47:22;8.95;;;8.15;;
17631;SDS011;8934;51.194;17.150;2022-10-16T04:50:12;9.30;;;8.30;;
17631;SDS011;8934;51.194;17.150;2022-10-16T04:53:18;15.55;;;9.35;;
17631;SDS011;8934;51.194;17.150;2022-10-16T04:56:05;9.02;;;8.23;;
17631;SDS011;8934;51.194;17.150;2022-10-16T04:58:53;9.63;;;8.82;;
17631;SDS011;8934;51.194;17.150;2022-10-16T05:01:41;10.90;;;9.55;;
17631;SDS011;8934;51.194;17.150;2022-10-16T05:04:29;9.50;;;8.65;;
17631;SDS011;8934;51.194;17.150;2022-10-16T05:07:18;10.77;;;9.68;;
17631;SDS011;8934;51.194;17.150;2022-10-16T05:10:06;10.25;;;9.32;;
17631;SDS011;8934;51.194;17.150;2022-10-16T05:12:54;10.45;;;9.55;;
17631;SDS011;8934;51.194;17.150;2022-10-16T05:15:46;10.20;;;9.20;;
17631;SDS011;8934;51.194;17.150;2022-10-16T05:18:34;9.85;;;9.02;;
17631;SDS011;8934;51.194;17.150;2022-10-16T05:21:22;9.35;;;8.55;;
17631;SDS011;8934;51.194;17.150;2022-10-16T05:24:11;9.45;;;8.65;;
17631;SDS011;8934;51.194;17.150;2022-10-16T05:26:59;8.48;;;7.50;;
17631;SDS011;8934;51.194;17.150;2022-10-16T05:29:47;8.45;;;7.65;;
17631;SDS011;8934;51.194;17.150;2022-10-16T05:32:35;9.95;;;9.05;;
17631;SDS011;8934;51.194;17.150;2022-10-16T05:35:23;9.35;;;8.55;;
17631;SDS011;8934;51.194;17.150;2022-10-16T05:38:11;8.90;;;8.10;;
17631;SDS011;8934;51.194;17.150;2022-10-16T05:41:01;11.00;;;9.90;;
17631;SDS011;8934;51.194;17.150;2022-10-16T05:43:48;11.20;;;10.18;;
17631;SDS011;8934;51.194;17.150;2022-10-16T05:46:36;10.13;;;9.23;;
17631;SDS011;8934;51.194;17.150;2022-10-16T05:49:24;10.52;;;9.32;;
17631;SDS011;8934;51.194;17.150;2022-10-16T05:52:11;10.25;;;9.35;;
17631;SDS011;8934;51.194;17.150;2022-10-16T05:54:59;11.50;;;10.40;;
17631;SDS011;8934;51.194;17.150;2022-10-16T05:57:49;10.45;;;9.55;;
17631;SDS011;8934;51.194;17.150;2022-10-16T06:31:24;17.50;;;13.52;;
17631;SDS011;8934;51.194;17.150;2022-10-16T06:37:02;13.60;;;12.27;;
17631;SDS011;8934;51.194;17.150;2022-10-16T06:39:51;15.02;;;13.45;;
17631;SDS011;8934;51.194;17.150;2022-10-16T06:42:39;13.07;;;11.93;;
17631;SDS011;8934;51.194;17.150;2022-10-16T06:45:27;13.27;;;12.05;;
17631;SDS011;8934;51.194;17.150;2022-10-16T06:48:16;11.82;;;10.73;;
17631;SDS011;8934;51.194;17.150;2022-10-16T06:56:50;12.25;;;10.55;;
17631;SDS011;8934;51.194;17.150;2022-10-16T06:59:40;12.30;;;11.05;;
17631;SDS011;8934;51.194;17.150;2022-10-16T07:02:31;12.55;;;11.27;;
17631;SDS011;8934;51.194;17.150;2022-10-16T07:05:21;12.30;;;11.10;;
17631;SDS011;8934;51.194;17.150;2022-10-16T07:08:09;11.88;;;10.75;;
17631;SDS011;8934;51.194;17.150;2022-10-16T07:11:00;12.30;;;11.20;;
17631;SDS011;8934;51.194;17.150;2022-10-16T07:13:49;11.57;;;10.60;;
17631;SDS011;8934;51.194;17.150;2022-10-16T07:16:41;12.30;;;11.23;;
17631;SDS011;8934;51.194;17.150;2022-10-16T07:19:29;11.90;;;10.85;;
17631;SDS011;8934;51.194;17.150;2022-10-16T07:22:20;12.07;;;11.02;;
17631;SDS011;8934;51.194;17.150;2022-10-16T07:25:09;12.15;;;10.90;;
17631;SDS011;8934;51.194;17.150;2022-10-16T07:27:57;11.95;;;10.82;;
17631;SDS011;8934;51.194;17.150;2022-10-16T07:30:45;12.25;;;11.15;;
17631;SDS011;8934;51.194;17.150;2022-10-16T09:04:03;4.70;;;4.28;;
17631;SDS011;8934;51.194;17.150;2022-10-16T09:15:44;4.07;;;3.78;;
17631;SDS011;8934;51.194;17.150;2022-10-16T10:15:12;4.15;;;3.85;;
17631;SDS011;8934;51.194;17.150;2022-10-16T10:18:14;3.80;;;3.50;;
17631;SDS011;8934;51.194;17.150;2022-10-16T10:21:05;4.07;;;3.58;;
17631;SDS011;8934;51.194;17.150;2022-10-16T15:47:43;13.07;;;5.40;;
17631;SDS011;8934;51.194;17.150;2022-10-16T15:50:31;6.55;;;5.65;;
17631;SDS011;8934;51.194;17.150;2022-10-16T15:53:20;6.57;;;5.55;;
17631;SDS011;8934;51.194;17.150;2022-10-16T15:56:09;7.13;;;5.55;;
17631;SDS011;8934;51.194;17.150;2022-10-16T15:58:58;6.45;;;5.85;;
17631;SDS011;8934;51.194;17.150;2022-10-16T16:01:46;9.10;;;6.15;;
17631;SDS011;8934;51.194;17.150;2022-10-16T16:04:34;12.23;;;6.88;;
17631;SDS011;8934;51.194;17.150;2022-10-16T16:07:31;8.45;;;6.78;;
17631;SDS011;8934;51.194;17.150;2022-10-16T16:10:20;9.32;;;5.95;;
17631;SDS011;8934;51.194;17.150;2022-10-16T16:13:09;7.15;;;6.55;;
17631;SDS011;8934;51.194;17.150;2022-10-16T16:15:57;7.25;;;6.57;;
17631;SDS011;8934;51.194;17.150;2022-10-16T16:21:34;10.25;;;7.78;;
17631;SDS011;8934;51.194;17.150;2022-10-16T16:24:22;7.82;;;6.88;;
17631;SDS011;8934;51.194;17.150;2022-10-16T16:27:10;10.60;;;9.50;;
17631;SDS011;8934;51.194;17.150;2022-10-16T16:30:01;11.27;;;10.00;;
17631;SDS011;8934;51.194;17.150;2022-10-16T16:32:50;15.35;;;11.45;;
17631;SDS011;8934;51.194;17.150;2022-10-16T16:35:38;14.10;;;11.60;;
17631;SDS011;8934;51.194;17.150;2022-10-16T16:38:26;13.02;;;11.80;;
17631;SDS011;8934;51.194;17.150;2022-10-16T16:41:15;13.35;;;12.15;;
17631;SDS011;8934;51.194;17.150;2022-10-16T16:44:06;13.85;;;12.45;;
17631;SDS011;8934;51.194;17.150;2022-10-16T16:46:57;13.13;;;12.00;;
17631;SDS011;8934;51.194;17.150;2022-10-16T16:49:45;14.60;;;13.05;;
17631;SDS011;8934;51.194;17.150;2022-10-16T16:52:33;14.70;;;13.35;;
17631;SDS011;8934;51.194;17.150;2022-10-16T16:55:21;15.63;;;14.13;;
17631;SDS011;8934;51.194;17.150;2022-10-16T16:58:08;16.60;;;14.88;;
17631;SDS011;8934;51.194;17.150;2022-10-16T17:00:56;16.48;;;14.27;;
17631;SDS011;8934;51.194;17.150;2022-10-16T17:04:06;23.05;;;18.23;;
17631;SDS011;8934;51.194;17.150;2022-10-16T17:06:55;21.98;;;18.35;;
17631;SDS011;8934;51.194;17.150;2022-10-16T17:09:42;20.83;;;16.52;;
17631;SDS011;8934;51.194;17.150;2022-10-16T17:12:30;16.92;;;14.75;;
17631;SDS011;8934;51.194;17.150;2022-10-16T17:15:18;20.73;;;15.95;;
17631;SDS011;8934;51.194;17.150;2022-10-16T17:18:06;19.00;;;15.43;;
17631;SDS011;8934;51.194;17.150;2022-10-16T17:20:58;16.85;;;14.77;;
17631;SDS011;8934;51.194;17.150;2022-10-16T17:23:46;21.25;;;15.25;;
17631;SDS011;8934;51.194;17.150;2022-10-16T17:26:37;16.05;;;14.32;;
17631;SDS011;8934;51.194;17.150;2022-10-16T17:29:28;19.00;;;14.50;;
17631;SDS011;8934;51.194;17.150;2022-10-16T17:32:16;16.02;;;14.30;;
17631;SDS011;8934;51.194;17.150;2022-10-16T17:35:05;15.68;;;14.07;;
17631;SDS011;8934;51.194;17.150;2022-10-16T17:37:56;16.23;;;13.48;;
17631;SDS011;8934;51.194;17.150;2022-10-16T17:40:44;16.08;;;14.10;;
17631;SDS011;8934;51.194;17.150;2022-10-16T17:43:31;16.30;;;13.98;;
17631;SDS011;8934;51.194;17.150;2022-10-16T17:46:21;17.52;;;14.15;;
17631;SDS011;8934;51.194;17.150;2022-10-16T17:49:11;17.60;;;15.48;;
17631;SDS011;8934;51.194;17.150;2022-10-16T17:51:59;22.27;;;17.60;;
17631;SDS011;8934;51.194;17.150;2022-10-16T17:54:50;19.17;;;16.15;;
17631;SDS011;8934;51.194;17.150;2022-10-16T17:57:38;17.88;;;15.90;;
17631;SDS011;8934;51.194;17.150;2022-10-16T18:00:26;23.13;;;18.02;;
17631;SDS011;8934;51.194;17.150;2022-10-16T18:03:15;19.48;;;17.13;;
17631;SDS011;8934;51.194;17.150;2022-10-16T18:08:54;21.10;;;16.80;;
17631;SDS011;8934;51.194;17.150;2022-10-16T18:11:48;24.83;;;17.00;;
17631;SDS011;8934;51.194;17.150;2022-10-16T18:14:40;19.75;;;17.15;;
17631;SDS011;8934;51.194;17.150;2022-10-16T18:51:08;23.27;;;17.75;;
17631;SDS011;8934;51.194;17.150;2022-10-16T18:53:57;20.83;;;18.40;;
17631;SDS011;8934;51.194;17.150;2022-10-16T18:56:46;21.23;;;18.50;;
17631;SDS011;8934;51.194;17.150;2022-10-16T18:59:34;20.80;;;16.58;;
17631;SDS011;8934;51.194;17.150;2022-10-16T19:13:35;18.10;;;16.23;;
17631;SDS011;8934;51.194;17.150;2022-10-16T19:16:24;18.95;;;16.05;;
17631;SDS011;8934;51.194;17.150;2022-10-16T19:19:16;18.17;;;16.30;;
17631;SDS011;8934;51.194;17.150;2022-10-16T19:22:05;18.08;;;15.35;;
17631;SDS011;8934;51.194;17.150;2022-10-16T19:25:13;21.05;;;15.52;;
17631;SDS011;8934;51.194;17.150;2022-10-16T19:28:01;17.42;;;15.35;;
17631;SDS011;8934;51.194;17.150;2022-10-16T19:30:52;18.58;;;15.13;;
17631;SDS011;8934;51.194;17.150;2022-10-16T19:33:40;32.50;;;15.50;;
17631;SDS011;8934;51.194;17.150;2022-10-16T19:36:29;20.92;;;16.80;;
17631;SDS011;8934;51.194;17.150;2022-10-16T19:39:18;19.77;;;17.10;;
17631;SDS011;8934;51.194;17.150;2022-10-16T19:42:06;20.25;;;17.75;;
17631;SDS011;8934;51.194;17.150;2022-10-16T19:44:54;20.13;;;15.98;;
17631;SDS011;8934;51.194;17.150;2022-10-16T20:24:17;19.70;;;15.75;;
17631;SDS011;8934;51.194;17.150;2022-10-16T20:27:05;28.52;;;19.15;;
17631;SDS011;8934;51.194;17.150;2022-10-16T20:29:54;23.50;;;18.67;;
17631;SDS011;8934;51.194;17.150;2022-10-16T20:32:42;25.75;;;16.65;;
17631;SDS011;8934;51.194;17.150;2022-10-16T20:35:34;18.00;;;15.70;;
17631;SDS011;8934;51.194;17.150;2022-10-16T20:41:11;17.75;;;15.75;;
17631;SDS011;8934;51.194;17.150;2022-10-16T20:44:00;18.85;;;14.50;;
17631;SDS011;8934;51.194;17.150;2022-10-16T20:46:50;19.20;;;14.50;;
17631;SDS011;8934;51.194;17.150;2022-10-16T20:49:41;18.88;;;16.20;;
17631;SDS011;8934;51.194;17.150;2022-10-16T20:52:31;19.17;;;15.27;;
17631;SDS011;8934;51.194;17.150;2022-10-16T20:55:19;18.58;;;15.57;;
17631;SDS011;8934;51.194;17.150;2022-10-16T20:58:06;18.27;;;15.30;;
17631;SDS011;8934;51.194;17.150;2022-10-16T21:32:05;17.85;;;15.07;;
17631;SDS011;8934;51.194;17.150;2022-10-16T21:34:52;20.27;;;15.85;;
17631;SDS011;8934;51.194;17.150;2022-10-16T21:37:42;17.48;;;14.35;;
17631;SDS011;8934;51.194;17.150;2022-10-16T21:40:34;18.70;;;14.85;;
17631;SDS011;8934;51.194;17.150;2022-10-16T21:43:22;18.35;;;15.05;;
17631;SDS011;8934;51.194;17.150;2022-10-16T21:46:10;17.80;;;14.43;;
17631;SDS011;8934;51.194;17.150;2022-10-16T21:48:59;18.70;;;14.60;;
17631;SDS011;8934;51.194;17.150;2022-10-16T21:51:49;17.52;;;15.63;;
17631;SDS011;8934;51.194;17.150;2022-10-16T21:54:39;18.70;;;16.02;;
17631;SDS011;8934;51.194;17.150;2022-10-16T21:57:27;18.70;;;15.25;;
17631;SDS011;8934;51.194;17.150;2022-10-16T22:00:15;18.08;;;14.75;;
17631;SDS011;8934;51.194;17.150;2022-10-16T22:03:02;18.00;;;15.20;;
17631;SDS011;8934;51.194;17.150;2022-10-16T22:05:50;17.58;;;14.68;;
17631;SDS011;8934;51.194;17.150;2022-10-16T22:08:38;14.60;;;13.18;;
17631;SDS011;8934;51.194;17.150;2022-10-16T22:11:28;19.45;;;14.48;;
17631;SDS011;8934;51.194;17.150;2022-10-16T22:14:24;18.40;;;14.45;;
17631;SDS011;8934;51.194;17.150;2022-10-16T22:17:11;14.82;;;13.32;;
17631;SDS011;8934;51.194;17.150;2022-10-16T22:19:59;13.95;;;12.55;;
17631;SDS011;8934;51.194;17.150;2022-10-16T22:22:47;18.35;;;14.77;;
17631;SDS011;8934;51.194;17.150;2022-10-16T22:25:35;16.10;;;13.07;;
17631;SDS011;8934;51.194;17.150;2022-10-16T22:28:25;14.77;;;13.18;;
17631;SDS011;8934;51.194;17.150;2022-10-16T22:31:13;15.40;;;13.65;;
17631;SDS011;8934;51.194;17.150;2022-10-16T22:34:01;15.48;;;13.48;;
17631;SDS011;8934;51.194;17.150;2022-10-16T22:36:50;19.08;;;13.98;;
17631;SDS011;8934;51.194;17.150;2022-10-16T22:39:38;16.15;;;13.88;;
17631;SDS011;8934;51.194;17.150;2022-10-16T22:42:26;15.20;;;13.70;;
17631;SDS011;8934;51.194;17.150;2022-10-16T22:45:15;15.88;;;13.63;;
17631;SDS011;8934;51.194;17.150;2022-10-16T22:48:03;14.75;;;12.93;;
17631;SDS011;8934;51.194;17.150;2022-10-16T22:50:51;15.63;;;14.05;;
17631;SDS011;8934;51.194;17.150;2022-10-16T22:53:39;14.05;;;12.43;;
17631;SDS011;8934;51.194;17.150;2022-10-16T22:56:28;14.90;;;13.35;;
17631;SDS011;8934;51.194;17.150;2022-10-16T22:59:15;13.55;;;12.25;;
17631;SDS011;8934;51.194;17.150;2022-10-16T23:02:05;13.70;;;12.40;;
17631;SDS011;8934;51.194;17.150;2022-10-16T23:04:52;21.00;;;15.50;;
17631;SDS011;8934;51.194;17.150;2022-10-16T23:07:40;20.52;;;15.18;;
17631;SDS011;8934;51.194;17.150;2022-10-16T23:10:29;21.75;;;15.07;;
17631;SDS011;8934;51.194;17.150;2022-10-16T23:13:17;16.33;;;14.68;;
17631;SDS011;8934;51.194;17.150;2022-10-16T23:16:05;17.70;;;15.90;;
17631;SDS011;8934;51.194;17.150;2022-10-16T23:18:54;17.08;;;15.27;;
17631;SDS011;8934;51.194;17.150;2022-10-16T23:21:42;18.15;;;16.25;;
17631;SDS011;8934;51.194;17.150;2022-10-16T23:24:31;18.63;;;16.63;;
17631;SDS011;8934;51.194;17.150;2022-10-16T23:27:19;21.65;;;16.35;;
17631;SDS011;8934;51.194;17.150;2022-10-16T23:30:07;25.23;;;20.08;;
17631;SDS011;8934;51.194;17.150;2022-10-16T23:32:57;38.80;;;27.92;;
17631;SDS011;8934;51.194;17.150;2022-10-16T23:35:47;38.83;;;26.15;;
17631;SDS011;8934;51.194;17.150;2022-10-16T23:38:35;34.35;;;25.73;;
17631;SDS011;8934;51.194;17.150;2022-10-16T23:41:23;32.50;;;23.70;;
17631;SDS011;8934;51.194;17.150;2022-10-16T23:44:10;25.45;;;21.52;;
17631;SDS011;8934;51.194;17.150;2022-10-16T23:46:58;24.35;;;18.55;;
17631;SDS011;8934;51.194;17.150;2022-10-16T23:49:46;18.35;;;16.55;;
17631;SDS011;8934;51.194;17.150;2022-10-16T23:52:36;21.35;;;16.30;;
17631;SDS011;8934;51.194;17.150;2022-10-16T23:55:23;20.08;;;16.17;;
17631;SDS011;8934;51.194;17.150;2022-10-16T23:58:11;18.00;;;15.90;;
